sensor_id;sensor_type;location;lat;lon;timestamp;P1;durP1;ratioP1;P2;durP2;ratioP2
24743;SDS011;12844;52.110;5.548;2023-04-19T00:00:13;11.07;;;6.22;;
24743;SDS011;12844;52.110;5.548;2023-04-19T00:02:39;11.02;;;6.05;;
24743;SDS011;12844;52.110;5.548;2023-04-19T00:05:05;9.15;;;5.78;;
24743;SDS011;12844;52.110;5.548;2023-04-19T00:07:32;9.52;;;6.10;;
24743;SDS011;12844;52.110;5.548;2023-04-19T00:09:57;9.55;;;5.68;;
24743;SDS011;12844;52.110;5.548;2023-04-19T00:12:23;9.75;;;5.60;;
24743;SDS011;12844;52.110;5.548;2023-04-19T00:14:48;9.00;;;5.38;;
24743;SDS011;12844;52.110;5.548;2023-04-19T00:17:14;10.13;;;5.65;;
24743;SDS011;12844;52.110;5.548;2023-04-19T00:19:40;8.82;;;5.70;;
24743;SDS011;12844;52.110;5.548;2023-04-19T00:22:05;10.18;;;5.85;;
24743;SDS011;12844;52.110;5.548;2023-04-19T00:24:31;8.98;;;5.38;;
24743;SDS011;12844;52.110;5.548;2023-04-19T00:26:56;8.88;;;5.20;;
24743;SDS011;12844;52.110;5.548;2023-04-19T00:29:23;9.65;;;5.60;;
24743;SDS011;12844;52.110;5.548;2023-04-19T00:31:48;8.45;;;5.47;;
24743;SDS011;12844;52.110;5.548;2023-04-19T00:34:14;8.00;;;5.10;;
24743;SDS011;12844;52.110;5.548;2023-04-19T00:36:39;8.80;;;5.20;;
24743;SDS011;12844;52.110;5.548;2023-04-19T00:39:05;9.23;;;5.65;;
24743;SDS011;12844;52.110;5.548;2023-04-19T00:41:31;10.45;;;5.65;;
24743;SDS011;12844;52.110;5.548;2023-04-19T00:43:57;8.77;;;5.13;;
24743;SDS011;12844;52.110;5.548;2023-04-19T00:46:22;8.85;;;5.30;;
24743;SDS011;12844;52.110;5.548;2023-04-19T00:48:48;7.90;;;5.18;;
24743;SDS011;12844;52.110;5.548;2023-04-19T00:51:15;8.32;;;5.20;;
24743;SDS011;12844;52.110;5.548;2023-04-19T00:53:40;8.52;;;5.25;;
24743;SDS011;12844;52.110;5.548;2023-04-19T00:56:06;9.35;;;5.65;;
24743;SDS011;12844;52.110;5.548;2023-04-19T00:58:33;7.45;;;4.97;;
24743;SDS011;12844;52.110;5.548;2023-04-19T01:00:59;8.77;;;5.22;;
24743;SDS011;12844;52.110;5.548;2023-04-19T01:03:25;7.45;;;5.22;;
24743;SDS011;12844;52.110;5.548;2023-04-19T01:05:54;8.88;;;5.78;;
24743;SDS011;12844;52.110;5.548;2023-04-19T01:08:19;8.35;;;5.55;;
24743;SDS011;12844;52.110;5.548;2023-04-19T01:10:45;7.65;;;5.30;;
24743;SDS011;12844;52.110;5.548;2023-04-19T01:13:10;9.30;;;5.40;;
24743;SDS011;12844;52.110;5.548;2023-04-19T01:15:36;8.30;;;5.30;;
24743;SDS011;12844;52.110;5.548;2023-04-19T01:18:02;8.82;;;5.40;;
24743;SDS011;12844;52.110;5.548;2023-04-19T01:20:27;8.23;;;5.00;;
24743;SDS011;12844;52.110;5.548;2023-04-19T01:22:53;7.93;;;4.95;;
24743;SDS011;12844;52.110;5.548;2023-04-19T01:25:18;10.18;;;5.18;;
24743;SDS011;12844;52.110;5.548;2023-04-19T01:27:44;9.75;;;4.78;;
24743;SDS011;12844;52.110;5.548;2023-04-19T01:30:10;8.25;;;5.40;;
24743;SDS011;12844;52.110;5.548;2023-04-19T01:32:36;7.55;;;5.00;;
24743;SDS011;12844;52.110;5.548;2023-04-19T01:35:01;9.40;;;5.22;;
24743;SDS011;12844;52.110;5.548;2023-04-19T01:37:27;9.63;;;5.35;;
24743;SDS011;12844;52.110;5.548;2023-04-19T01:39:52;8.35;;;5.03;;
24743;SDS011;12844;52.110;5.548;2023-04-19T01:42:18;8.77;;;5.13;;
24743;SDS011;12844;52.110;5.548;2023-04-19T01:44:43;9.13;;;4.78;;
24743;SDS011;12844;52.110;5.548;2023-04-19T01:47:09;7.45;;;4.95;;
24743;SDS011;12844;52.110;5.548;2023-04-19T01:49:35;6.90;;;4.50;;
24743;SDS011;12844;52.110;5.548;2023-04-19T01:52:01;7.65;;;4.88;;
24743;SDS011;12844;52.110;5.548;2023-04-19T01:54:26;8.32;;;5.10;;
24743;SDS011;12844;52.110;5.548;2023-04-19T01:56:52;7.68;;;4.85;;
24743;SDS011;12844;52.110;5.548;2023-04-19T01:59:17;7.57;;;4.68;;
24743;SDS011;12844;52.110;5.548;2023-04-19T02:01:43;8.60;;;5.00;;
24743;SDS011;12844;52.110;5.548;2023-04-19T02:04:08;6.80;;;5.03;;
24743;SDS011;12844;52.110;5.548;2023-04-19T02:06:34;6.97;;;4.32;;
24743;SDS011;12844;52.110;5.548;2023-04-19T02:08:59;6.78;;;4.80;;
24743;SDS011;12844;52.110;5.548;2023-04-19T02:11:25;6.43;;;4.93;;
24743;SDS011;12844;52.110;5.548;2023-04-19T02:13:50;6.50;;;4.68;;
24743;SDS011;12844;52.110;5.548;2023-04-19T02:16:16;6.20;;;4.38;;
24743;SDS011;12844;52.110;5.548;2023-04-19T02:18:41;7.22;;;4.43;;
24743;SDS011;12844;52.110;5.548;2023-04-19T02:21:07;5.38;;;4.03;;
24743;SDS011;12844;52.110;5.548;2023-04-19T02:23:34;6.50;;;4.43;;
24743;SDS011;12844;52.110;5.548;2023-04-19T02:26:00;7.97;;;4.82;;
24743;SDS011;12844;52.110;5.548;2023-04-19T02:28:29;6.60;;;4.75;;
24743;SDS011;12844;52.110;5.548;2023-04-19T02:30:55;8.07;;;4.85;;
24743;SDS011;12844;52.110;5.548;2023-04-19T02:33:21;7.18;;;4.50;;
24743;SDS011;12844;52.110;5.548;2023-04-19T02:35:47;7.88;;;4.47;;
24743;SDS011;12844;52.110;5.548;2023-04-19T02:38:12;8.20;;;4.90;;
24743;SDS011;12844;52.110;5.548;2023-04-19T02:40:38;7.03;;;4.40;;
24743;SDS011;12844;52.110;5.548;2023-04-19T02:43:04;7.25;;;4.50;;
24743;SDS011;12844;52.110;5.548;2023-04-19T02:45:29;5.13;;;3.90;;
24743;SDS011;12844;52.110;5.548;2023-04-19T02:47:55;8.65;;;4.80;;
24743;SDS011;12844;52.110;5.548;2023-04-19T02:50:20;6.25;;;4.40;;
24743;SDS011;12844;52.110;5.548;2023-04-19T02:52:46;6.05;;;3.97;;
24743;SDS011;12844;52.110;5.548;2023-04-19T02:55:11;6.22;;;4.15;;
24743;SDS011;12844;52.110;5.548;2023-04-19T02:57:37;6.10;;;4.10;;
24743;SDS011;12844;52.110;5.548;2023-04-19T03:00:03;5.75;;;4.20;;
24743;SDS011;12844;52.110;5.548;2023-04-19T03:02:29;5.70;;;4.50;;
24743;SDS011;12844;52.110;5.548;2023-04-19T03:04:55;6.53;;;4.88;;
24743;SDS011;12844;52.110;5.548;2023-04-19T03:07:22;5.88;;;4.28;;
24743;SDS011;12844;52.110;5.548;2023-04-19T03:09:47;5.95;;;4.28;;
24743;SDS011;12844;52.110;5.548;2023-04-19T03:12:13;6.13;;;4.50;;
24743;SDS011;12844;52.110;5.548;2023-04-19T03:14:38;6.18;;;4.55;;
24743;SDS011;12844;52.110;5.548;2023-04-19T03:17:04;7.10;;;4.55;;
24743;SDS011;12844;52.110;5.548;2023-04-19T03:19:29;4.95;;;3.85;;
24743;SDS011;12844;52.110;5.548;2023-04-19T03:21:55;6.78;;;4.07;;
24743;SDS011;12844;52.110;5.548;2023-04-19T03:24:30;5.93;;;4.38;;
24743;SDS011;12844;52.110;5.548;2023-04-19T03:26:56;6.65;;;4.38;;
24743;SDS011;12844;52.110;5.548;2023-04-19T03:29:22;5.13;;;3.75;;
24743;SDS011;12844;52.110;5.548;2023-04-19T03:31:47;6.50;;;4.25;;
24743;SDS011;12844;52.110;5.548;2023-04-19T03:34:14;6.18;;;4.20;;
24743;SDS011;12844;52.110;5.548;2023-04-19T03:36:39;5.68;;;4.25;;
24743;SDS011;12844;52.110;5.548;2023-04-19T03:39:05;6.90;;;4.45;;
24743;SDS011;12844;52.110;5.548;2023-04-19T03:41:31;6.07;;;4.28;;
24743;SDS011;12844;52.110;5.548;2023-04-19T03:43:56;6.15;;;4.43;;
24743;SDS011;12844;52.110;5.548;2023-04-19T03:46:22;5.95;;;4.18;;
24743;SDS011;12844;52.110;5.548;2023-04-19T03:48:48;7.70;;;4.78;;
24743;SDS011;12844;52.110;5.548;2023-04-19T03:51:14;7.15;;;4.78;;
24743;SDS011;12844;52.110;5.548;2023-04-19T03:53:40;5.82;;;4.32;;
24743;SDS011;12844;52.110;5.548;2023-04-19T03:56:06;5.93;;;4.30;;
24743;SDS011;12844;52.110;5.548;2023-04-19T03:58:31;6.32;;;4.40;;
24743;SDS011;12844;52.110;5.548;2023-04-19T13:20:13;4.22;;;2.47;;
24743;SDS011;12844;52.110;5.548;2023-04-19T13:22:39;3.05;;;2.60;;
24743;SDS011;12844;52.110;5.548;2023-04-19T13:25:04;3.35;;;2.50;;
24743;SDS011;12844;52.110;5.548;2023-04-19T13:27:30;2.55;;;1.98;;
24743;SDS011;12844;52.110;5.548;2023-04-19T13:29:56;2.83;;;2.25;;
24743;SDS011;12844;52.110;5.548;2023-04-19T13:32:21;3.42;;;2.50;;
24743;SDS011;12844;52.110;5.548;2023-04-19T13:34:47;4.13;;;2.75;;
24743;SDS011;12844;52.110;5.548;2023-04-19T13:37:13;3.08;;;2.15;;
24743;SDS011;12844;52.110;5.548;2023-04-19T13:57:46;4.40;;;2.40;;
24743;SDS011;12844;52.110;5.548;2023-04-19T14:00:12;2.63;;;2.35;;
24743;SDS011;12844;52.110;5.548;2023-04-19T14:02:38;2.75;;;2.30;;
24743;SDS011;12844;52.110;5.548;2023-04-19T14:05:03;2.10;;;1.90;;
24743;SDS011;12844;52.110;5.548;2023-04-19T14:07:29;3.47;;;2.35;;
24743;SDS011;12844;52.110;5.548;2023-04-19T14:09:55;2.45;;;2.20;;
24743;SDS011;12844;52.110;5.548;2023-04-19T14:12:20;2.78;;;2.13;;
24743;SDS011;12844;52.110;5.548;2023-04-19T14:14:46;3.05;;;2.10;;
24743;SDS011;12844;52.110;5.548;2023-04-19T14:17:11;3.42;;;2.20;;
24743;SDS011;12844;52.110;5.548;2023-04-19T14:19:37;3.40;;;2.10;;
24743;SDS011;12844;52.110;5.548;2023-04-19T14:22:02;2.28;;;1.92;;
24743;SDS011;12844;52.110;5.548;2023-04-19T14:24:28;4.60;;;2.15;;
24743;SDS011;12844;52.110;5.548;2023-04-19T14:26:53;2.08;;;1.80;;
24743;SDS011;12844;52.110;5.548;2023-04-19T14:29:19;2.00;;;1.80;;
24743;SDS011;12844;52.110;5.548;2023-04-19T14:31:44;2.67;;;2.10;;
24743;SDS011;12844;52.110;5.548;2023-04-19T14:34:10;2.40;;;1.92;;
24743;SDS011;12844;52.110;5.548;2023-04-19T14:36:36;2.70;;;2.00;;
24743;SDS011;12844;52.110;5.548;2023-04-19T14:39:01;3.80;;;1.90;;
24743;SDS011;12844;52.110;5.548;2023-04-19T14:41:27;2.70;;;2.20;;
24743;SDS011;12844;52.110;5.548;2023-04-19T14:43:52;3.17;;;1.95;;
24743;SDS011;12844;52.110;5.548;2023-04-19T14:46:20;2.65;;;2.13;;
24743;SDS011;12844;52.110;5.548;2023-04-19T14:48:45;3.40;;;2.00;;
24743;SDS011;12844;52.110;5.548;2023-04-19T14:51:11;1.65;;;1.55;;
24743;SDS011;12844;52.110;5.548;2023-04-19T14:53:36;2.25;;;1.90;;
24743;SDS011;12844;52.110;5.548;2023-04-19T14:56:05;2.20;;;2.00;;
24743;SDS011;12844;52.110;5.548;2023-04-19T14:58:31;2.50;;;1.70;;
24743;SDS011;12844;52.110;5.548;2023-04-19T15:00:57;2.50;;;2.00;;
24743;SDS011;12844;52.110;5.548;2023-04-19T15:03:23;2.20;;;1.77;;
24743;SDS011;12844;52.110;5.548;2023-04-19T15:05:48;1.90;;;1.70;;
24743;SDS011;12844;52.110;5.548;2023-04-19T15:08:14;1.95;;;1.73;;
24743;SDS011;12844;52.110;5.548;2023-04-19T15:10:39;2.45;;;1.60;;
24743;SDS011;12844;52.110;5.548;2023-04-19T15:13:05;3.03;;;1.80;;
24743;SDS011;12844;52.110;5.548;2023-04-19T15:15:30;3.05;;;1.88;;
24743;SDS011;12844;52.110;5.548;2023-04-19T15:17:56;2.10;;;1.90;;
24743;SDS011;12844;52.110;5.548;2023-04-19T15:20:21;2.40;;;1.85;;
24743;SDS011;12844;52.110;5.548;2023-04-19T15:22:50;2.80;;;1.90;;
24743;SDS011;12844;52.110;5.548;2023-04-19T15:25:15;2.65;;;2.00;;
24743;SDS011;12844;52.110;5.548;2023-04-19T15:27:41;2.33;;;1.70;;
24743;SDS011;12844;52.110;5.548;2023-04-19T15:30:08;2.08;;;1.88;;
24743;SDS011;12844;52.110;5.548;2023-04-19T15:32:34;2.13;;;1.88;;
24743;SDS011;12844;52.110;5.548;2023-04-19T15:35:02;2.85;;;1.80;;
24743;SDS011;12844;52.110;5.548;2023-04-19T15:37:28;2.72;;;1.85;;
24743;SDS011;12844;52.110;5.548;2023-04-19T15:39:53;2.08;;;1.85;;
24743;SDS011;12844;52.110;5.548;2023-04-19T15:42:20;3.00;;;1.95;;
24743;SDS011;12844;52.110;5.548;2023-04-19T15:44:45;3.30;;;1.80;;
24743;SDS011;12844;52.110;5.548;2023-04-19T15:47:11;3.00;;;2.10;;
24743;SDS011;12844;52.110;5.548;2023-04-19T15:49:36;3.33;;;2.33;;
24743;SDS011;12844;52.110;5.548;2023-04-19T15:52:04;3.08;;;2.10;;
24743;SDS011;12844;52.110;5.548;2023-04-19T15:54:30;2.38;;;1.95;;
24743;SDS011;12844;52.110;5.548;2023-04-19T15:56:55;3.92;;;2.13;;
24743;SDS011;12844;52.110;5.548;2023-04-19T15:59:21;4.45;;;2.13;;
24743;SDS011;12844;52.110;5.548;2023-04-19T16:01:46;2.20;;;1.92;;
24743;SDS011;12844;52.110;5.548;2023-04-19T16:04:13;3.78;;;1.90;;
24743;SDS011;12844;52.110;5.548;2023-04-19T16:06:39;2.42;;;1.60;;
24743;SDS011;12844;52.110;5.548;2023-04-19T16:09:04;2.42;;;2.13;;
24743;SDS011;12844;52.110;5.548;2023-04-19T16:11:31;3.38;;;2.15;;
24743;SDS011;12844;52.110;5.548;2023-04-19T16:13:57;2.42;;;1.80;;
24743;SDS011;12844;52.110;5.548;2023-04-19T16:16:22;2.40;;;1.90;;
24743;SDS011;12844;52.110;5.548;2023-04-19T16:18:50;2.53;;;1.90;;
24743;SDS011;12844;52.110;5.548;2023-04-19T16:21:16;2.33;;;1.83;;
24743;SDS011;12844;52.110;5.548;2023-04-19T16:23:41;2.30;;;2.10;;
24743;SDS011;12844;52.110;5.548;2023-04-19T16:26:06;2.30;;;1.90;;
24743;SDS011;12844;52.110;5.548;2023-04-19T16:28:32;2.45;;;2.00;;
24743;SDS011;12844;52.110;5.548;2023-04-19T16:30:58;2.92;;;2.10;;
24743;SDS011;12844;52.110;5.548;2023-04-19T16:33:23;2.83;;;1.98;;
24743;SDS011;12844;52.110;5.548;2023-04-19T16:35:49;2.00;;;1.70;;
24743;SDS011;12844;52.110;5.548;2023-04-19T16:38:14;5.25;;;1.92;;
24743;SDS011;12844;52.110;5.548;2023-04-19T16:40:40;3.55;;;2.10;;
24743;SDS011;12844;52.110;5.548;2023-04-19T16:43:05;4.05;;;2.13;;
24743;SDS011;12844;52.110;5.548;2023-04-19T16:45:31;4.03;;;2.22;;
24743;SDS011;12844;52.110;5.548;2023-04-19T16:47:56;2.80;;;1.85;;
24743;SDS011;12844;52.110;5.548;2023-04-19T16:50:22;3.40;;;2.30;;
24743;SDS011;12844;52.110;5.548;2023-04-19T16:52:47;3.50;;;2.03;;
24743;SDS011;12844;52.110;5.548;2023-04-19T16:55:13;2.65;;;2.03;;
24743;SDS011;12844;52.110;5.548;2023-04-19T16:57:39;5.30;;;2.30;;
24743;SDS011;12844;52.110;5.548;2023-04-19T17:00:08;3.75;;;2.20;;
24743;SDS011;12844;52.110;5.548;2023-04-19T17:02:37;3.13;;;2.10;;
24743;SDS011;12844;52.110;5.548;2023-04-19T17:05:03;2.63;;;2.00;;
24743;SDS011;12844;52.110;5.548;2023-04-19T17:07:29;2.78;;;2.17;;
24743;SDS011;12844;52.110;5.548;2023-04-19T17:09:54;3.88;;;2.13;;
24743;SDS011;12844;52.110;5.548;2023-04-19T17:12:20;3.25;;;1.80;;
24743;SDS011;12844;52.110;5.548;2023-04-19T17:14:45;3.17;;;2.03;;
24743;SDS011;12844;52.110;5.548;2023-04-19T17:17:11;5.10;;;2.40;;
24743;SDS011;12844;52.110;5.548;2023-04-19T17:19:36;3.53;;;2.03;;
24743;SDS011;12844;52.110;5.548;2023-04-19T17:22:02;2.78;;;2.10;;
24743;SDS011;12844;52.110;5.548;2023-04-19T17:24:29;2.90;;;2.33;;
24743;SDS011;12844;52.110;5.548;2023-04-19T17:26:56;4.32;;;2.17;;
24743;SDS011;12844;52.110;5.548;2023-04-19T17:29:22;2.70;;;1.92;;
24743;SDS011;12844;52.110;5.548;2023-04-19T17:31:48;3.30;;;2.10;;
24743;SDS011;12844;52.110;5.548;2023-04-19T17:34:13;3.03;;;1.83;;
24743;SDS011;12844;52.110;5.548;2023-04-19T17:36:39;3.75;;;1.70;;
24743;SDS011;12844;52.110;5.548;2023-04-19T17:39:06;4.88;;;2.20;;
24743;SDS011;12844;52.110;5.548;2023-04-19T17:41:31;3.28;;;2.10;;
24743;SDS011;12844;52.110;5.548;2023-04-19T17:43:57;2.22;;;2.00;;
24743;SDS011;12844;52.110;5.548;2023-04-19T17:46:23;4.00;;;2.05;;
24743;SDS011;12844;52.110;5.548;2023-04-19T17:48:48;3.00;;;2.17;;
24743;SDS011;12844;52.110;5.548;2023-04-19T17:51:14;4.35;;;2.20;;
24743;SDS011;12844;52.110;5.548;2023-04-19T17:53:39;2.58;;;1.92;;
24743;SDS011;12844;52.110;5.548;2023-04-19T17:56:05;2.63;;;1.83;;
24743;SDS011;12844;52.110;5.548;2023-04-19T17:58:30;3.78;;;2.05;;
24743;SDS011;12844;52.110;5.548;2023-04-19T18:00:56;2.95;;;2.00;;
24743;SDS011;12844;52.110;5.548;2023-04-19T18:03:21;3.35;;;2.00;;
24743;SDS011;12844;52.110;5.548;2023-04-19T18:05:47;2.70;;;2.20;;
24743;SDS011;12844;52.110;5.548;2023-04-19T18:08:13;2.35;;;2.10;;
24743;SDS011;12844;52.110;5.548;2023-04-19T18:10:38;2.90;;;2.40;;
24743;SDS011;12844;52.110;5.548;2023-04-19T18:13:04;3.72;;;2.38;;
24743;SDS011;12844;52.110;5.548;2023-04-19T18:15:29;3.30;;;2.10;;
24743;SDS011;12844;52.110;5.548;2023-04-19T18:17:55;4.43;;;2.50;;
24743;SDS011;12844;52.110;5.548;2023-04-19T18:20:20;2.30;;;1.95;;
24743;SDS011;12844;52.110;5.548;2023-04-19T18:22:47;4.15;;;2.58;;
24743;SDS011;12844;52.110;5.548;2023-04-19T18:25:13;3.40;;;2.35;;
24743;SDS011;12844;52.110;5.548;2023-04-19T18:27:39;4.85;;;2.35;;
24743;SDS011;12844;52.110;5.548;2023-04-19T18:30:04;4.35;;;2.30;;
24743;SDS011;12844;52.110;5.548;2023-04-19T18:32:31;2.45;;;2.00;;
24743;SDS011;12844;52.110;5.548;2023-04-19T18:34:56;2.88;;;1.90;;
24743;SDS011;12844;52.110;5.548;2023-04-19T18:37:22;3.85;;;2.10;;
24743;SDS011;12844;52.110;5.548;2023-04-19T18:39:48;4.72;;;2.30;;
24743;SDS011;12844;52.110;5.548;2023-04-19T18:42:13;4.97;;;2.60;;
24743;SDS011;12844;52.110;5.548;2023-04-19T18:44:39;4.28;;;2.33;;
24743;SDS011;12844;52.110;5.548;2023-04-19T18:47:04;3.47;;;2.08;;
24743;SDS011;12844;52.110;5.548;2023-04-19T18:49:30;4.85;;;1.85;;
24743;SDS011;12844;52.110;5.548;2023-04-19T18:51:57;5.65;;;2.10;;
24743;SDS011;12844;52.110;5.548;2023-04-19T18:54:22;3.30;;;1.92;;
24743;SDS011;12844;52.110;5.548;2023-04-19T18:56:48;4.13;;;1.90;;
24743;SDS011;12844;52.110;5.548;2023-04-19T18:59:15;4.90;;;2.10;;
24743;SDS011;12844;52.110;5.548;2023-04-19T19:01:40;4.95;;;2.05;;
24743;SDS011;12844;52.110;5.548;2023-04-19T19:04:09;2.63;;;1.90;;
24743;SDS011;12844;52.110;5.548;2023-04-19T19:06:34;3.35;;;1.90;;
24743;SDS011;12844;52.110;5.548;2023-04-19T19:09:00;2.67;;;2.10;;
24743;SDS011;12844;52.110;5.548;2023-04-19T19:11:26;3.03;;;2.42;;
24743;SDS011;12844;52.110;5.548;2023-04-19T19:13:51;3.00;;;1.80;;
24743;SDS011;12844;52.110;5.548;2023-04-19T19:16:17;10.90;;;2.45;;
24743;SDS011;12844;52.110;5.548;2023-04-19T19:18:42;5.60;;;2.20;;
24743;SDS011;12844;52.110;5.548;2023-04-19T19:21:08;3.60;;;1.85;;
24743;SDS011;12844;52.110;5.548;2023-04-19T19:23:33;4.25;;;1.60;;
24743;SDS011;12844;52.110;5.548;2023-04-19T19:25:59;5.82;;;1.70;;
24743;SDS011;12844;52.110;5.548;2023-04-19T19:28:25;5.15;;;1.90;;
24743;SDS011;12844;52.110;5.548;2023-04-19T19:30:51;3.65;;;1.90;;
24743;SDS011;12844;52.110;5.548;2023-04-19T19:33:17;4.72;;;1.95;;
24743;SDS011;12844;52.110;5.548;2023-04-19T19:35:43;3.00;;;1.95;;
24743;SDS011;12844;52.110;5.548;2023-04-19T19:38:09;4.65;;;1.90;;
24743;SDS011;12844;52.110;5.548;2023-04-19T19:40:35;5.63;;;1.88;;
24743;SDS011;12844;52.110;5.548;2023-04-19T19:43:01;2.83;;;2.08;;
24743;SDS011;12844;52.110;5.548;2023-04-19T19:45:27;3.40;;;1.83;;
24743;SDS011;12844;52.110;5.548;2023-04-19T19:47:53;3.47;;;1.85;;
24743;SDS011;12844;52.110;5.548;2023-04-19T19:50:19;4.53;;;1.70;;
24743;SDS011;12844;52.110;5.548;2023-04-19T19:52:45;3.75;;;2.00;;
24743;SDS011;12844;52.110;5.548;2023-04-19T19:55:11;3.75;;;2.00;;
24743;SDS011;12844;52.110;5.548;2023-04-19T19:57:38;4.18;;;2.00;;
24743;SDS011;12844;52.110;5.548;2023-04-19T20:00:04;6.57;;;1.85;;
24743;SDS011;12844;52.110;5.548;2023-04-19T20:02:34;3.22;;;1.98;;
24743;SDS011;12844;52.110;5.548;2023-04-19T20:05:00;3.90;;;1.80;;
24743;SDS011;12844;52.110;5.548;2023-04-19T20:07:27;4.22;;;2.10;;
24743;SDS011;12844;52.110;5.548;2023-04-19T20:09:53;3.25;;;1.60;;
24743;SDS011;12844;52.110;5.548;2023-04-19T20:15:31;5.38;;;1.98;;
24743;SDS011;12844;52.110;5.548;2023-04-19T20:17:58;3.13;;;1.70;;
24743;SDS011;12844;52.110;5.548;2023-04-19T20:20:23;3.22;;;1.80;;
24743;SDS011;12844;52.110;5.548;2023-04-19T20:22:49;2.58;;;1.58;;
24743;SDS011;12844;52.110;5.548;2023-04-19T20:25:14;3.00;;;1.58;;
24743;SDS011;12844;52.110;5.548;2023-04-19T20:27:40;2.53;;;1.83;;
24743;SDS011;12844;52.110;5.548;2023-04-19T20:30:06;3.92;;;1.92;;
24743;SDS011;12844;52.110;5.548;2023-04-19T20:32:33;3.47;;;1.83;;
24743;SDS011;12844;52.110;5.548;2023-04-19T20:35:00;3.00;;;1.80;;
24743;SDS011;12844;52.110;5.548;2023-04-19T20:37:32;5.05;;;2.03;;
24743;SDS011;12844;52.110;5.548;2023-04-19T20:40:02;2.28;;;1.67;;
24743;SDS011;12844;52.110;5.548;2023-04-19T20:42:29;3.88;;;2.28;;
24743;SDS011;12844;52.110;5.548;2023-04-19T20:44:55;4.95;;;2.15;;
24743;SDS011;12844;52.110;5.548;2023-04-19T20:47:20;5.50;;;2.03;;
24743;SDS011;12844;52.110;5.548;2023-04-19T20:49:46;5.22;;;2.05;;
24743;SDS011;12844;52.110;5.548;2023-04-19T20:52:11;3.58;;;1.85;;
24743;SDS011;12844;52.110;5.548;2023-04-19T20:54:37;3.95;;;2.00;;
24743;SDS011;12844;52.110;5.548;2023-04-19T20:57:03;2.90;;;2.08;;
24743;SDS011;12844;52.110;5.548;2023-04-19T20:59:29;4.00;;;1.80;;
24743;SDS011;12844;52.110;5.548;2023-04-19T21:01:55;3.08;;;2.08;;
24743;SDS011;12844;52.110;5.548;2023-04-19T21:04:21;3.47;;;2.03;;
24743;SDS011;12844;52.110;5.548;2023-04-19T21:06:46;2.33;;;1.85;;
24743;SDS011;12844;52.110;5.548;2023-04-19T21:09:12;2.75;;;2.00;;
24743;SDS011;12844;52.110;5.548;2023-04-19T21:11:37;4.45;;;2.03;;
24743;SDS011;12844;52.110;5.548;2023-04-19T21:14:03;3.53;;;1.90;;
24743;SDS011;12844;52.110;5.548;2023-04-19T21:16:28;3.45;;;1.90;;
24743;SDS011;12844;52.110;5.548;2023-04-19T21:18:54;3.60;;;1.98;;
24743;SDS011;12844;52.110;5.548;2023-04-19T21:21:20;2.58;;;1.85;;
24743;SDS011;12844;52.110;5.548;2023-04-19T21:23:45;2.88;;;1.70;;
24743;SDS011;12844;52.110;5.548;2023-04-19T21:26:11;3.03;;;1.92;;
24743;SDS011;12844;52.110;5.548;2023-04-19T21:28:36;2.92;;;1.80;;
24743;SDS011;12844;52.110;5.548;2023-04-19T21:31:02;3.38;;;1.83;;
24743;SDS011;12844;52.110;5.548;2023-04-19T21:33:27;2.63;;;1.80;;
24743;SDS011;12844;52.110;5.548;2023-04-19T21:35:53;3.03;;;1.95;;
24743;SDS011;12844;52.110;5.548;2023-04-19T21:38:19;2.15;;;1.88;;
24743;SDS011;12844;52.110;5.548;2023-04-19T21:40:44;4.45;;;2.00;;
24743;SDS011;12844;52.110;5.548;2023-04-19T21:43:10;2.47;;;1.70;;
24743;SDS011;12844;52.110;5.548;2023-04-19T21:45:36;5.53;;;2.35;;
24743;SDS011;12844;52.110;5.548;2023-04-19T21:48:01;3.15;;;2.10;;
24743;SDS011;12844;52.110;5.548;2023-04-19T21:50:27;2.47;;;2.05;;
24743;SDS011;12844;52.110;5.548;2023-04-19T21:52:53;2.95;;;2.15;;
24743;SDS011;12844;52.110;5.548;2023-04-19T21:55:18;2.72;;;1.83;;
24743;SDS011;12844;52.110;5.548;2023-04-19T21:57:44;2.35;;;2.13;;
24743;SDS011;12844;52.110;5.548;2023-04-19T22:00:09;3.25;;;2.13;;
24743;SDS011;12844;52.110;5.548;2023-04-19T22:02:35;2.70;;;1.90;;
24743;SDS011;12844;52.110;5.548;2023-04-19T22:05:01;3.17;;;1.70;;
24743;SDS011;12844;52.110;5.548;2023-04-19T22:07:27;3.20;;;1.95;;
24743;SDS011;12844;52.110;5.548;2023-04-19T22:09:56;3.70;;;1.80;;
24743;SDS011;12844;52.110;5.548;2023-04-19T22:12:22;2.47;;;2.10;;
24743;SDS011;12844;52.110;5.548;2023-04-19T22:14:48;3.10;;;2.17;;
24743;SDS011;12844;52.110;5.548;2023-04-19T22:17:15;3.22;;;1.75;;
24743;SDS011;12844;52.110;5.548;2023-04-19T22:19:43;2.78;;;1.90;;
24743;SDS011;12844;52.110;5.548;2023-04-19T22:22:09;2.50;;;2.00;;
24743;SDS011;12844;52.110;5.548;2023-04-19T22:24:35;2.53;;;2.05;;
24743;SDS011;12844;52.110;5.548;2023-04-19T22:27:01;2.92;;;1.73;;
24743;SDS011;12844;52.110;5.548;2023-04-19T22:29:27;2.33;;;1.73;;
24743;SDS011;12844;52.110;5.548;2023-04-19T22:31:52;2.03;;;1.83;;
24743;SDS011;12844;52.110;5.548;2023-04-19T22:34:18;2.08;;;1.77;;
24743;SDS011;12844;52.110;5.548;2023-04-19T22:36:43;2.65;;;1.80;;
24743;SDS011;12844;52.110;5.548;2023-04-19T22:39:09;3.22;;;2.25;;
24743;SDS011;12844;52.110;5.548;2023-04-19T22:41:35;2.70;;;1.80;;
24743;SDS011;12844;52.110;5.548;2023-04-19T22:44:00;3.63;;;1.90;;
24743;SDS011;12844;52.110;5.548;2023-04-19T22:46:26;2.20;;;1.85;;
24743;SDS011;12844;52.110;5.548;2023-04-19T22:48:51;3.30;;;2.15;;
24743;SDS011;12844;52.110;5.548;2023-04-19T22:51:17;2.10;;;1.80;;
24743;SDS011;12844;52.110;5.548;2023-04-19T22:53:42;3.00;;;1.90;;
24743;SDS011;12844;52.110;5.548;2023-04-19T22:56:08;4.38;;;1.88;;
24743;SDS011;12844;52.110;5.548;2023-04-19T22:58:34;2.20;;;1.60;;
24743;SDS011;12844;52.110;5.548;2023-04-19T23:00:59;3.72;;;1.90;;
24743;SDS011;12844;52.110;5.548;2023-04-19T23:03:26;3.50;;;1.92;;
24743;SDS011;12844;52.110;5.548;2023-04-19T23:05:51;2.28;;;1.60;;
24743;SDS011;12844;52.110;5.548;2023-04-19T23:08:18;2.92;;;2.20;;
24743;SDS011;12844;52.110;5.548;2023-04-19T23:10:44;2.03;;;1.80;;
24743;SDS011;12844;52.110;5.548;2023-04-19T23:13:10;2.78;;;1.77;;
24743;SDS011;12844;52.110;5.548;2023-04-19T23:15:36;2.22;;;1.70;;
24743;SDS011;12844;52.110;5.548;2023-04-19T23:18:03;1.98;;;1.73;;
24743;SDS011;12844;52.110;5.548;2023-04-19T23:20:28;2.75;;;1.90;;
24743;SDS011;12844;52.110;5.548;2023-04-19T23:22:54;2.45;;;1.70;;
24743;SDS011;12844;52.110;5.548;2023-04-19T23:25:20;2.40;;;1.77;;
24743;SDS011;12844;52.110;5.548;2023-04-19T23:27:46;1.75;;;1.50;;
24743;SDS011;12844;52.110;5.548;2023-04-19T23:30:14;2.70;;;1.90;;
24743;SDS011;12844;52.110;5.548;2023-04-19T23:32:40;2.72;;;1.88;;
24743;SDS011;12844;52.110;5.548;2023-04-19T23:35:05;1.90;;;1.55;;
24743;SDS011;12844;52.110;5.548;2023-04-19T23:37:31;3.78;;;2.10;;
24743;SDS011;12844;52.110;5.548;2023-04-19T23:39:57;3.28;;;1.70;;
24743;SDS011;12844;52.110;5.548;2023-04-19T23:42:22;2.70;;;1.80;;
24743;SDS011;12844;52.110;5.548;2023-04-19T23:44:48;3.83;;;1.90;;
24743;SDS011;12844;52.110;5.548;2023-04-19T23:47:18;2.35;;;1.75;;
24743;SDS011;12844;52.110;5.548;2023-04-19T23:49:43;4.13;;;1.83;;
24743;SDS011;12844;52.110;5.548;2023-04-19T23:52:09;2.42;;;1.52;;
24743;SDS011;12844;52.110;5.548;2023-04-19T23:54:35;3.35;;;1.80;;
24743;SDS011;12844;52.110;5.548;2023-04-19T23:57:00;2.08;;;1.80;;
24743;SDS011;12844;52.110;5.548;2023-04-19T23:59:26;1.60;;;1.50;;
